• Join FlightAware (Why Join?)
  • Login
  • US Flag 
Rudolph Flight #1: Arrived! 
01:42AM EST


 

Airport Tracker/Info


-or-


 

Live Flight TrackerFlight Track Log ✈ UAL1177 ✈ 22-Apr-2013 ✈ KSFO - KSTL

Flight Track Log - Related Links

Times and Time Zones

All times are in EDT time to prevent confusion due to time zone crossing. See the UAL1177 flight status page for this flight to view local times or setup timezone preferences in your user account.

Time Position Orientation Groundspeed Altitude Reporting Facility
EDT Latitude Longitude Course Direction KTS MPH feet Rate Location/Type
03:38PM 37.6500 -122.3500 58° Northeast 169 194 1,400  Level Northern Cal TRACON
03:39PM 37.6833 -122.2833 58° Northeast 230 265 4,000 2,820 Climbing Northern Cal TRACON
03:39PM 37.7086 -122.2536 43° Northeast 249 287 5,900 3,480 Climbing Oakland Center
03:40PM 37.7464 -122.1706 60° Northeast 273 314 9,600 3,060 Climbing Oakland Center
03:42PM 37.7172 -122.0565 70° East  Level FlightAware Approximate
03:42PM 37.7753 -122.0664 71° East 307 353 12,200  Level Oakland Center
03:43PM 37.7696 -121.8941 58° Northeast  Level FlightAware Approximate
03:43PM 37.8081 -121.9514 70° East 343 395 15,400  Level Oakland Center
03:44PM 37.8419 -121.8319 70° East 360 414 18,300 3,000 Climbing Oakland Center
03:45PM 37.8853 -121.6792 70° East 384 442 21,500 2,580 Climbing Oakland Center
03:46PM 37.9228 -121.5453 70° East 403 464 23,600 1,980 Climbing Oakland Center
03:47PM 37.9597 -121.4161 70° East 418 481 25,600 1,980 Climbing Oakland Center
03:48PM 37.9997 -121.2711 71° East 434 499 27,700 1,980 Climbing Oakland Center
03:49PM 38.0406 -121.1242 71° East 443 510 29,700 1,920 Climbing Oakland Center
03:50PM 38.0842 -120.9419 73° East 453 521 31,700 1,740 Climbing Oakland Center
03:51PM 38.1042 -120.7828 81° East 460 529 33,300 1,560 Climbing Oakland Center
03:52PM 38.1258 -120.6228 80° East 462 532 34,900 1,380 Climbing Oakland Center
03:53PM 38.1478 -120.4617 80° East 465 535 36,200 1,260 Climbing Oakland Center
03:54PM 38.1686 -120.2997 81° East 465 535 37,500 1,140 Climbing Oakland Center
03:55PM 38.1897 -120.1389 80° East 463 533 38,600 720 Climbing Oakland Center
03:56PM 38.2139 -119.9781 79° East 464 534 39,000 180 Climbing Oakland Center
03:57PM 38.2300 -119.8158 83° East 465 535 39,000  Level Oakland Center
03:58PM 38.2544 -119.6233 81° East 461 531 39,000  Level Oakland Center
03:59PM 38.2747 -119.4617 81° East 463 533 39,000  Level Oakland Center
04:00PM 38.2939 -119.3028 81° East 462 532 39,000  Level Oakland Center
04:01PM 38.3136 -119.1422 81° East 461 531 39,000  Level Oakland Center
04:02PM 38.3328 -118.9811 81° East 462 532 39,000  Level Oakland Center
04:03PM 38.3519 -118.8175 81° East 466 536 39,000  Level Oakland Center
04:04PM 38.3714 -118.6519 81° East 473 544 39,000  Level Oakland Center
04:05PM 38.3900 -118.4878 82° East 470 541 39,000  Level Oakland Center
04:06PM 38.4117 -118.2914 82° East 469 540 39,000  Level Oakland Center
04:07PM 38.4306 -118.1256 82° East 474 545 39,000  Level Oakland Center
04:08PM 38.4500 -117.9536 82° East 473 544 39,000  Level Oakland Center
04:09PM 38.4681 -117.7858 82° East 474 545 39,000  Level Oakland Center
04:10PM 38.4853 -117.6181 82° East 475 547 39,000  Level Oakland Center
04:11PM 38.5031 -117.4503 82° East 474 545 39,000  Level Oakland Center
04:12PM 38.5200 -117.2814 83° East 473 544 39,000  Level Salt Lake Center
04:13PM 38.5161 -117.1092 92° East 479 551 39,000  Level Oakland Center
04:14PM 38.5131 -116.9367 91° East 480 552 39,000  Level Oakland Center
04:15PM 38.5086 -116.7650 92° East 481 554 39,000  Level Oakland Center
04:16PM 38.5044 -116.5917 92° East 484 557 39,000  Level Oakland Center
04:17PM 38.4994 -116.4206 92° East 483 556 39,000  Level Oakland Center
04:18PM 38.4939 -116.2142 92° East 483 556 39,000  Level Salt Lake Center
04:19PM 38.4894 -116.0417 92° East 485 558 39,000  Level Salt Lake Center
04:20PM 38.4842 -115.8703 92° East 484 557 39,000  Level Salt Lake Center
04:21PM 38.4792 -115.6972 92° East 486 559 39,000  Level Salt Lake Center
04:22PM 38.4725 -115.5250 93° East 486 559 39,000  Level Salt Lake Center
04:23PM 38.4669 -115.3372 92° East 484 557 39,000  Level Salt Lake Center
04:25PM 38.4603 -115.1717 93° East 488 562 39,000  Level Salt Lake Center
04:26PM 38.4542 -114.9994 93° East 487 560 39,000  Level Salt Lake Center
04:27PM 38.4469 -114.8253 93° East 490 564 39,000  Level Salt Lake Center
04:28PM 38.4389 -114.6511 93° East 493 567 39,000  Level Salt Lake Center
04:29PM 38.4317 -114.4758 93° East 494 568 39,000  Level Salt Lake Center
04:30PM 38.4242 -114.2622 92° East 499 574 39,000  Level Salt Lake Center
04:31PM 38.4158 -114.0842 93° East 503 579 39,000  Level Salt Lake Center
04:32PM 38.4069 -113.9067 94° East 502 578 39,000  Level Salt Lake Center
04:33PM 38.3986 -113.7297 93° East 500 575 39,000  Level Salt Lake Center
04:34PM 38.3900 -113.5531 94° East 500 575 39,000  Level Salt Lake Center
04:35PM 38.3800 -113.3744 94° East 503 579 39,000  Level Salt Lake Center
04:36PM 38.3714 -113.1964 93° East 503 579 39,000  Level Salt Lake Center
04:37PM 38.3631 -113.0217 93° East 497 572 39,000  Level Salt Lake Center
04:38PM 38.3911 -112.8475 78° East 497 572 39,000  Level Salt Lake Center
04:39PM 38.4244 -112.6761 76° East 497 572 39,000  Level Salt Lake Center
04:40PM 38.4619 -112.4667 77° East 502 578 39,000  Level Salt Lake Center
04:41PM 38.4922 -112.2925 77° East 502 578 39,000  Level Salt Lake Center
04:42PM 38.5244 -112.1192 77° East 502 578 39,000  Level Salt Lake Center
04:43PM 38.5544 -111.9431 78° East 506 582 39,000  Level Salt Lake Center
04:44PM 38.5858 -111.7722 77° East 498 573 39,000  Level Salt Lake Center
04:45PM 38.6142 -111.5981 78° East 499 574 39,000  Level Salt Lake Center
04:46PM 38.6458 -111.4244 77° East 501 577 39,000  Level Salt Lake Center
04:47PM 38.6744 -111.2489 78° East 503 579 39,000  Level Salt Lake Center
04:48PM 38.7097 -111.0428 78° East 498 573 39,000  Level Salt Lake Center
04:49PM 38.7353 -110.8833 78° East 499 574 39,000  Level Salt Lake Center
04:50PM 38.7675 -110.6881 78° East 501 577 39,000  Level Salt Lake Center
04:51PM 38.7942 -110.5189 79° East 504 580 39,000  Level Salt Lake Center
04:52PM 38.8219 -110.3478 78° East 510 587 39,000  Level Salt Lake Center
04:53PM 38.8328 -110.2614 81° East 510 587 39,000  Level Denver Center
04:54PM 38.8594 -110.0928 78° East 506 582 39,000  Level Denver Center
04:54PM 38.8792 -109.9844 77° East 501 577 39,000  Level Salt Lake Center
04:55PM 38.9083 -109.7933 79° East 491 565 39,000  Level Salt Lake Center
04:56PM 38.9161 -109.7369 80° East 490 564 39,000  Level Denver Center
04:57PM 38.9406 -109.5719 79° East 493 567 39,000  Level Denver Center
04:58PM 38.9711 -109.3753 79° East 503 579 39,000  Level Denver Center
04:59PM 38.9969 -109.2058 79° East 505 581 39,000  Level Denver Center
05:00PM 39.0269 -109.0072 79° East 509 586 39,000  Level Denver Center
05:01PM 39.0517 -108.8367 79° East 509 586 39,000  Level Denver Center
05:02PM 39.0897 -108.6436 76° East 502 578 39,000  Level Denver Center
05:03PM 39.1244 -108.4781 75° East 502 578 39,000  Level Denver Center
05:04PM 39.1592 -108.3106 75° East 508 585 39,000  Level Denver Center
05:05PM 39.1986 -108.1158 75° East 506 582 39,000  Level Denver Center
05:06PM 39.2331 -107.9483 75° East 507 583 39,000  Level Denver Center
05:07PM 39.2725 -107.7519 75° East 510 587 39,000  Level Denver Center
05:08PM 39.3058 -107.5797 76° East 515 593 39,000  Level Denver Center
05:09PM 39.3458 -107.3792 75° East 517 595 39,000  Level Denver Center
05:10PM 39.3806 -107.2067 75° East 520 598 39,000  Level Denver Center
05:11PM 39.4128 -107.0322 77° East 521 600 39,000  Level Denver Center
05:12PM 39.4472 -106.8289 78° East 519 597 39,000  Level Denver Center
05:13PM 39.4683 -106.6492 81° East 527 606 39,000  Level Denver Center
05:14PM 39.4925 -106.4469 81° East 527 606 39,000  Level Denver Center
05:15PM 39.5139 -106.2619 81° East 520 598 39,000  Level Denver Center
05:16PM 39.5361 -106.0653 82° East 515 593 39,000  Level Denver Center
05:17PM 39.5569 -105.8831 82° East 509 586 39,000  Level Denver Center
05:18PM 39.5783 -105.6983 81° East 514 592 39,000  Level Denver Center
05:19PM 39.5978 -105.5167 82° East 502 578 39,000  Level Denver Center
05:20PM 39.6167 -105.3342 82° East 504 580 39,000  Level Denver Center
05:21PM 39.6361 -105.1500 82° East 503 579 39,000  Level Denver Center
05:22PM 39.6542 -104.9644 83° East 509 586 39,000  Level Denver Center
05:23PM 39.6708 -104.7797 83° East 498 573 39,000  Level Denver Center
05:24PM 39.6886 -104.5886 83° East 537 618 39,000  Level Denver Center
05:25PM 39.6703 -104.4003 97° East 514 592 39,000  Level Denver Center
05:26PM 39.6522 -104.2144 97° East 516 594 39,000  Level Denver Center
05:27PM 39.6347 -104.0272 97° East 514 592 39,000  Level Denver Center
05:28PM 39.6156 -103.8419 98° East 515 593 39,000  Level Denver Center
05:29PM 39.5986 -103.6611 97° East 501 577 39,000  Level Denver Center
05:30PM 39.5808 -103.4747 97° East 514 592 39,000  Level Denver Center
05:31PM 39.5581 -103.2583 98° East 516 594 39,000  Level Denver Center
05:33PM 39.5394 -103.0728 97° East 515 593 39,000  Level Denver Center
05:34PM 39.5211 -102.8881 97° East 513 590 39,000  Level Denver Center
05:35PM 39.5008 -102.7042 98° East 510 587 39,000  Level Denver Center
05:36PM 39.4808 -102.5225 98° East 505 581 39,000  Level Denver Center
05:37PM 39.4619 -102.3522 98° East 504 580 39,000  Level Denver Center
05:38PM 39.4403 -102.1544 98° East 499 574 39,000  Level Denver Center
05:39PM 39.4208 -101.9811 98° East 507 583 39,000  Level Denver Center
05:40PM 39.3978 -101.7806 98° East 507 583 39,000  Level Denver Center
05:41PM 39.3789 -101.6097 98° East 504 580 39,000  Level Denver Center
05:42PM 39.3606 -101.4075 97° East 508 585 39,000  Level Denver Center
05:43PM 39.3431 -101.2381 98° East 502 578 39,000  Level Denver Center
05:44PM 39.3233 -101.0372 97° East 505 581 39,000  Level Denver Center
05:45PM 39.3056 -100.8664 98° East 503 579 39,000  Level Denver Center
05:46PM 39.2889 -100.6956 97° East 504 580 39,000  Level Denver Center
05:47PM 39.2669 -100.4961 98° East 502 578 39,000  Level Denver Center
05:48PM 39.2492 -100.3261 98° East 503 579 39,000 -540 Level Denver Center
05:49PM 39.2275 -100.1267 98° East 503 579 38,000 -960 Descending Denver Center
05:50PM 39.2086 -99.9600 98° East 505 581 37,100 -540 Descending Denver Center
05:51PM 39.1864 -99.7528 98° East 518 596 37,000 -60 Descending Denver Center
05:52PM 39.1664 -99.5806 98° East 512 589 37,000  Level Denver Center
05:53PM 39.1428 -99.3792 99° East 509 586 37,000  Level Denver Center
05:54PM 39.1222 -99.2061 99° East 509 586 37,000  Level Denver Center
05:55PM 39.1017 -99.0336 99° East 510 587 37,000  Level Denver Center
05:56PM 39.0792 -98.8414 99° East 513 590 37,000  Level Denver Center
05:57PM 39.0667 -98.7344 99° East 512 589 37,000  Level Kansas City Center
05:58PM 39.0439 -98.5519 99° East 515 593 37,000  Level Kansas City Center
05:59PM 39.0214 -98.3711 99° East 512 589 37,000  Level Kansas City Center
06:00PM 38.9933 -98.1539 99° East 513 590 37,000  Level Kansas City Center
06:01PM 38.9700 -97.9728 99° East 512 589 37,000  Level Kansas City Center
06:02PM 38.9497 -97.8036 99° East 510 587 37,000  Level Kansas City Center
06:03PM 38.9233 -97.6033 100° East 510 587 37,000  Level Kansas City Center
06:04PM 38.8900 -97.4356 104° East 513 590 37,000  Level Kansas City Center
06:05PM 38.8547 -97.2578 104° East 514 592 37,000  Level Kansas City Center
06:06PM 38.8200 -97.0806 104° East 512 589 37,000  Level Kansas City Center
06:07PM 38.7847 -96.9025 104° East 514 592 37,000  Level Kansas City Center
06:08PM 38.7419 -96.6900 104° East 513 590 37,000  Level Kansas City Center
06:09PM 38.7033 -96.5056 105° East 509 586 37,000  Level Kansas City Center
06:10PM 38.6692 -96.3392 105° East 507 583 37,000  Level Kansas City Center
06:11PM 38.6297 -96.1458 105° East 506 582 37,000  Level Kansas City Center
06:12PM 38.5950 -95.9792 105° East 507 583 37,000  Level Kansas City Center
06:13PM 38.5603 -95.8142 105° East 505 581 37,000  Level Kansas City Center
06:14PM 38.5194 -95.6225 105° East 506 582 37,000  Level Kansas City Center
06:15PM 38.4847 -95.4564 105° East 507 583 37,000  Level Kansas City Center
06:16PM 38.4431 -95.2631 105° East 508 585 37,000  Level Kansas City Center
06:17PM 38.4081 -95.0983 105° East 506 582 37,000  Level Kansas City Center
06:18PM 38.3650 -94.9050 106° East 510 587 37,000  Level Kansas City Center
06:19PM 38.3289 -94.7400 106° East 509 586 37,000  Level Kansas City Center
06:21PM 38.2858 -94.5464 106° East 509 586 37,000  Level Kansas City Center
06:22PM 38.2911 -94.3772 88° East 507 583 37,000  Level Kansas City Center
06:23PM 38.3222 -94.1850 78° East 501 577 37,000  Level Kansas City Center
06:24PM 38.3486 -94.0244 78° East 499 574 37,000 -360 Level Kansas City Center
06:25PM 38.3758 -93.8497 79° East 501 577 36,300 -900 Descending Kansas City Center
06:26PM 38.4089 -93.6422 78° East 497 572 35,200 -1,020 Descending Kansas City Center
06:27PM 38.4364 -93.4739 78° East 489 563 34,200 -960 Descending Kansas City Center
06:28PM 38.4619 -93.3058 79° East 483 556 33,200 -960 Descending Kansas City Center
06:29PM 38.4886 -93.1400 78° East 478 550 32,300 -960 Descending Kansas City Center
06:30PM 38.5075 -92.9758 82° East 469 540 31,300 -960 Descending Kansas City Center
06:31PM 38.5247 -92.8081 82° East 471 542 30,400 -960 Descending Kansas City Center
06:32PM 38.5450 -92.6403 81° East 474 545 29,400 -1,020 Descending Kansas City Center
06:33PM 38.5633 -92.4706 82° East 477 549 28,400 -1,020 Descending Kansas City Center
06:34PM 38.5803 -92.3047 83° East 473 544 27,300 -1,860 Descending Kansas City Center
06:35PM 38.6019 -92.1103 82° East 461 531 24,600 -2,520 Descending Kansas City Center
06:36PM 38.6181 -91.9569 82° East 441 507 22,300 -2,160 Descending Kansas City Center
06:37PM 38.6325 -91.8106 83° East 421 484 20,200 -1,980 Descending Kansas City Center
06:38PM 38.6467 -91.6669 83° East 410 472 18,200 -2,100 Descending Kansas City Center
06:38PM 38.6581 -91.5550 83° East 393 452 17,200 -2,640 Descending FAA TRACON SMA TRACON (SMA)
06:39PM 38.6606 -91.5014 87° East 392 451 16,300 -2,280 Descending FAA TRACON SMA TRACON (SMA)
06:39PM 38.6647 -91.4589 83° East 390 449 15,700 -2,040 Descending FAA TRACON SMA TRACON (SMA)
06:39PM 38.6706 -91.4169 80° East 389 448 15,000 -2,280 Descending FAA TRACON SMA TRACON (SMA)
06:40PM 38.6728 -91.3639 87° East 387 445 14,200 -2,280 Descending FAA TRACON SMA TRACON (SMA)
06:40PM 38.6769 -91.3225 83° East 384 442 13,500 -2,100 Descending FAA TRACON SMA TRACON (SMA)
06:40PM 38.6819 -91.2811 81° East 382 440 12,800 -2,220 Descending FAA TRACON SMA TRACON (SMA)
06:41PM 38.6856 -91.2300 85° East 378 435 12,000 -2,160 Descending FAA TRACON SMA TRACON (SMA)
06:41PM 38.6892 -91.1897 83° East 374 430 11,400 -1,740 Descending FAA TRACON SMA TRACON (SMA)
06:41PM 38.6917 -91.1497 85° East 368 423 10,900 -780 Descending FAA TRACON SMA TRACON (SMA)
06:42PM 38.6919 -91.1017 90° East 353 406 10,900  Level FAA TRACON SMA TRACON (SMA)
06:42PM 38.6919 -91.0650 90° East 341 392 10,900 -480 Level FAA TRACON SMA TRACON (SMA)
06:42PM 38.6986 -91.0306 76° East 327 376 10,600 -1,260 Descending FAA TRACON SMA TRACON (SMA)
06:43PM 38.7094 -90.9978 67° East 326 375 10,100 -1,740 Descending FAA TRACON SMA TRACON (SMA)
06:43PM 38.7211 -90.9564 70° East 321 369 9,500 -1,380 Descending FAA TRACON SMA TRACON (SMA)
06:43PM 38.7314 -90.9244 68° East 318 366 9,200 -1,200 Descending FAA TRACON SMA TRACON (SMA)
06:44PM 38.7428 -90.8850 70° East 312 359 8,700 -1,380 Descending FAA TRACON SMA TRACON (SMA)
06:44PM 38.7533 -90.8539 66° East 307 353 8,300 -1,200 Descending FAA TRACON SMA TRACON (SMA)
06:44PM 38.7631 -90.8231 68° East 304 350 7,900 -1,380 Descending FAA TRACON SMA TRACON (SMA)
06:45PM 38.7717 -90.7931 70° East 299 344 7,400 -1,740 Descending FAA TRACON SMA TRACON (SMA)
06:45PM 38.7836 -90.7564 67° East 293 337 6,800 -1,800 Descending FAA TRACON SMA TRACON (SMA)
06:45PM 38.7928 -90.7272 68° East 291 335 6,200 -1,680 Descending FAA TRACON SMA TRACON (SMA)
06:46PM 38.8033 -90.6983 65° Northeast 288 331 5,700 -1,800 Descending FAA TRACON SMA TRACON (SMA)
06:46PM 38.8142 -90.6622 69° East 284 327 5,000 -1,620 Descending FAA TRACON SMA TRACON (SMA)
06:46PM 38.8192 -90.6336 77° East 280 322 4,600 -960 Descending FAA TRACON SMA TRACON (SMA)
06:47PM 38.8206 -90.6056 86° East 262 302 4,400 -660 Descending FAA TRACON SMA TRACON (SMA)
06:47PM 38.8219 -90.5731 87° East 241 277 4,200 -600 Descending FAA TRACON SMA TRACON (SMA)
06:47PM 38.8228 -90.5483 88° East 226 260 4,000 -780 Descending FAA TRACON SMA TRACON (SMA)
06:48PM 38.8239 -90.5264 86° East 208 239 3,700 -1,320 Descending FAA TRACON SMA TRACON (SMA)
06:48PM 38.8244 -90.4997 88° East 195 224 3,100 -1,320 Descending FAA TRACON SMA TRACON (SMA)
06:48PM 38.8181 -90.4817 114° Southeast 187 215 2,800 -960 Descending FAA TRACON SMA TRACON (SMA)
06:49PM 38.8103 -90.4658 122° Southeast 174 200 2,500 -960 Descending FAA TRACON SMA TRACON (SMA)